weather.gov     
National Weather Service

Terminal Aerodrome Forecast
NWS Homepage
This page is being discontinued on March 12, 2014.
The same data is available at this site. Please update your bookmarks.
Thank you, and we apologize for the inconvenience.
Please send an email to SR-SRH.Webmaster@noaa.gov with any concerns.


Current Version
Previous Version:    01  02  03  04  05  06  07  08  09  10  11  12  13  14  15  16  17  18  19  20  21  22  23  24  25  26  27  
[Printable]
282
FTUS43 KDMX 232321
TAFFOD
TAF
KFOD 232321Z 2400/2424 13019G27KT P6SM VCSH OVC070
     FM240400 13018G27KT 6SM TSRA SCT025CB OVC060
     FM240800 12018G26KT 5SM -TSRA SCT008 BKN010CB BKN025
     FM241200 18010G15KT 5SM -SHRA BR SCT008 OVC015
     FM241700 30010G17KT 6SM BR SCT015 BKN025
     FM242100 32013KT P6SM SCT030 BKN250=


282
FTUS43 KDMX 232321
TAFFOD
TAF
KFOD 232321Z 2400/2424 13019G27KT P6SM VCSH OVC070
     FM240400 13018G27KT 6SM TSRA SCT025CB OVC060
     FM240800 12018G26KT 5SM -TSRA SCT008 BKN010CB BKN025
     FM241200 18010G15KT 5SM -SHRA BR SCT008 OVC015
     FM241700 30010G17KT 6SM BR SCT015 BKN025
     FM242100 32013KT P6SM SCT030 BKN250=




U.S. Dept. of Commerce
NOAA National Weather Service
1325 East West Highway
Silver Spring, MD 20910
E-mail: w-nws.webmaster@noaa.gov
Page last modified: May 16, 2007
NATIONAL WEATHER SERVICE: for Safety, for Work, for Fun - FOR LIFE